2VG9 weather

Sentara Williamsburg Regional Medical Center Heliport
Williamsburg, Virginia, United States

Public forecast

Using degrees Fahrenheit for public forecast. Weather courtesy of forecast.io.

METAR (pilot weather report)

Closest report is Williamsburg Jamestown Airport, 5.9 nm (10.9 km) SSE. Retrieved 2019/06/18 02:35 UTC (0 seconds ago):

KJGG 180235Z AUTO 00000KT 10SM CLR 24/23 A3002 RMK AO1

TAF (pilot weather forecast)

Forecast is more than 6 hours old.

Closest forecast is Felker Army Air Field, 13.7 nm (25.4 km) SSE. Retrieved 2019/06/17 18:59 UTC (7 hours ago):

TAF KFAF 171800Z 1718/1824 20012KT 9999 FEW090 SCT150 QNH2996INS TEMPO 1720/1723 20012G18KT 6000 -TSRA BKN040CB BECMG 1812/1813 22010G15KT 9999 FEW040 SCT060 QNH2997INS BECMG 1819/1820 20012KT 8000 -SHRA BKN040 QNH2992INS TEMPO 1820/1822 20012G18KT 6000 -TSRA BKN030CB BECMG 1822/1823 22009KT 9999 NSW SCT050 QNH2987INS TX33/1720Z TN23/1809Z LAST NO AMDS AFT 1803 NEXT 1810